Aviation Digital Data Service (ADDS)

Output produced by METARs form (0005 UTC 22 November 2014)
found at http://aviationweather.gov/adds/metars/
 
KHUL 212320Z 2200/2224 29008KT P6SM SCT120 
     FM221000 29004KT P6SM BKN250 
     FM221600 22010KT P6SM BKN035